createdAt,value
2019-04-28T00:04:51.853Z,1020.1
2019-04-28T00:09:51.790Z,1020.1
2019-04-28T00:14:52.099Z,1020.2
2019-04-28T00:19:51.918Z,1020.2
2019-04-28T00:24:51.962Z,1020.2
2019-04-28T00:29:52.469Z,1020.2
2019-04-28T00:34:51.680Z,1020.3
2019-04-28T00:39:51.804Z,1020.3
2019-04-28T00:44:52.015Z,1020.4
2019-04-28T00:49:52.435Z,1020.4
2019-04-28T00:54:53.105Z,1020.3
2019-04-28T00:59:59.117Z,1020.3
2019-04-28T01:04:51.903Z,1020.3
2019-04-28T01:09:52.174Z,1020.4
2019-04-28T01:14:59.592Z,1020.6
2019-04-28T01:19:51.883Z,1020.6
2019-04-28T01:24:51.904Z,1020.6
2019-04-28T01:30:10.670Z,1020.7
2019-04-28T01:34:51.903Z,1020.5
2019-04-28T01:39:51.675Z,1020.6
2019-04-28T01:44:51.818Z,1020.5
2019-04-28T01:49:51.871Z,1020.6
2019-04-28T01:54:51.695Z,1020.6
2019-04-28T01:59:51.861Z,1020.6
2019-04-28T02:04:51.879Z,1020.5
2019-04-28T02:09:51.705Z,1020.5
2019-04-28T02:14:52.610Z,1020.7
2019-04-28T02:19:52.020Z,1020.5
2019-04-28T02:24:51.675Z,1020.5
2019-04-28T02:29:51.693Z,1020.5
2019-04-28T02:34:51.862Z,1020.6
2019-04-28T02:39:51.923Z,1020.6
2019-04-28T02:44:51.901Z,1020.6
2019-04-28T02:49:51.733Z,1020.6
2019-04-28T02:54:51.752Z,1020.5
2019-04-28T02:59:51.968Z,1020.5
2019-04-28T03:04:51.725Z,1020.6
2019-04-28T03:09:52.696Z,1020.6
2019-04-28T03:14:51.737Z,1020.6
2019-04-28T03:19:52.269Z,1020.6
2019-04-28T03:24:51.925Z,1020.6
2019-04-28T03:29:53.028Z,1020.7
2019-04-28T03:34:54.962Z,1020.7
2019-04-28T03:39:51.881Z,1020.7
2019-04-28T03:44:51.973Z,1020.7
2019-04-28T03:49:52.008Z,1020.7
2019-04-28T03:54:51.994Z,1020.8
2019-04-28T03:59:52.092Z,1020.9
2019-04-28T04:04:53.422Z,1020.8
2019-04-28T04:09:52.055Z,1020.8
2019-04-28T04:14:53.021Z,1020.9
2019-04-28T04:19:52.009Z,1021
2019-04-28T04:24:53.062Z,1020.9
2019-04-28T04:29:51.987Z,1021
2019-04-28T04:34:51.968Z,1020.9
2019-04-28T04:39:51.880Z,1021.2
2019-04-28T04:44:51.762Z,1021.1
2019-04-28T04:49:51.964Z,1021.2
2019-04-28T04:54:52.028Z,1021.2
2019-04-28T04:59:51.945Z,1021.3
2019-04-28T05:04:51.812Z,1021.3
2019-04-28T05:09:51.877Z,1021.3
2019-04-28T05:14:51.931Z,1021.4
2019-04-28T05:19:51.801Z,1021.5
2019-04-28T05:24:54.815Z,1021.5
2019-04-28T05:29:51.914Z,1021.5
2019-04-28T05:34:53.350Z,1021.6
2019-04-28T05:39:53.050Z,1021.5
2019-04-28T05:44:52.899Z,1021.5
2019-04-28T05:49:51.850Z,1021.6
2019-04-28T05:54:52.028Z,1021.6
2019-04-28T05:59:51.796Z,1021.6
2019-04-28T06:04:51.804Z,1021.6
2019-04-28T06:09:51.827Z,1021.5
2019-04-28T06:14:51.818Z,1021.5
2019-04-28T06:19:51.971Z,1021.4
2019-04-28T06:24:52.004Z,1021.3
2019-04-28T06:29:52.147Z,1021.3
2019-04-28T06:34:52.047Z,1021.3
2019-04-28T06:39:51.936Z,1021.2
2019-04-28T06:44:51.958Z,1021.1
2019-04-28T06:49:52.042Z,1021.1
2019-04-28T06:54:52.015Z,1021
2019-04-28T06:59:52.051Z,1021
2019-04-28T07:05:02.947Z,1021
2019-04-28T07:09:51.862Z,1021
2019-04-28T07:14:51.847Z,1020.9
2019-04-28T07:19:51.882Z,1020.9
2019-04-28T07:24:51.857Z,1020.9
2019-04-28T07:29:52.018Z,1021
2019-04-28T07:34:52.179Z,1020.8
2019-04-28T07:39:51.849Z,1020.9
2019-04-28T07:44:52.071Z,1020.9
2019-04-28T07:49:51.884Z,1020.9
2019-04-28T07:54:52.110Z,1020.9
2019-04-28T07:59:51.863Z,1021
2019-04-28T08:04:52.069Z,1021.2
2019-04-28T08:09:52.035Z,1021.2
2019-04-28T08:14:51.936Z,1021.1
2019-04-28T08:19:52.218Z,1021.1
2019-04-28T08:24:51.874Z,1021.1
2019-04-28T08:29:59.230Z,1021.1
2019-04-28T08:34:52.092Z,1021.1
2019-04-28T08:39:52.107Z,1021.2
2019-04-28T08:44:51.949Z,1021.2
2019-04-28T08:49:52.249Z,1021.1
2019-04-28T08:54:51.883Z,1021.2
2019-04-28T08:59:51.894Z,1021.2
2019-04-28T09:04:52.136Z,1021.3
2019-04-28T09:09:52.061Z,1021.1
2019-04-28T09:14:52.142Z,1021
2019-04-28T09:19:52.051Z,1021.1
2019-04-28T09:24:51.931Z,1021.2
2019-04-28T09:29:52.176Z,1021.2
2019-04-28T09:34:52.076Z,1021.2
2019-04-28T09:39:52.080Z,1021.2
2019-04-28T09:44:52.140Z,1021.1
2019-04-28T09:49:52.079Z,1021
2019-04-28T09:54:52.093Z,1020.9
2019-04-28T09:59:52.123Z,1020.8
2019-04-28T10:04:52.071Z,1020.9
2019-04-28T10:09:52.100Z,1020.9
2019-04-28T10:14:51.942Z,1020.9
2019-04-28T10:19:52.201Z,1021
2019-04-28T10:24:52.073Z,1020.9
2019-04-28T10:29:52.002Z,1020.8
2019-04-28T10:34:55.691Z,1020.9
2019-04-28T10:39:52.057Z,1020.7
2019-04-28T10:44:52.002Z,1020.6
2019-04-28T10:49:52.879Z,1020.7
2019-04-28T10:54:53.041Z,1020.6
2019-04-28T10:59:52.973Z,1020.6
2019-04-28T11:04:53.033Z,1020.5
2019-04-28T11:09:52.948Z,1020.4
2019-04-28T11:14:53.107Z,1020.4
2019-04-28T11:19:52.952Z,1020.4
2019-04-28T11:24:52.898Z,1020.4
2019-04-28T11:29:52.920Z,1020.4
2019-04-28T11:34:52.867Z,1020.4
2019-04-28T11:39:53.174Z,1020.3
2019-04-28T11:44:52.974Z,1020.3
2019-04-28T11:49:53.128Z,1020.3
2019-04-28T11:54:52.878Z,1020.3
2019-04-28T11:59:54.810Z,1020.2
2019-04-28T12:04:53.260Z,1020.3
2019-04-28T12:10:06.640Z,1020.3
2019-04-28T12:14:53.073Z,1020.2
2019-04-28T12:19:53.427Z,1020
2019-04-28T12:24:53.519Z,1019.9
2019-04-28T12:29:53.003Z,1019.9
2019-04-28T12:34:53.006Z,1019.7
2019-04-28T12:39:53.483Z,1019.8
2019-04-28T12:44:53.220Z,1019.5
2019-04-28T12:49:52.945Z,1019.5
2019-04-28T12:54:53.168Z,1019.5
2019-04-28T12:59:53.611Z,1019.6
2019-04-28T13:04:53.267Z,1019.4
2019-04-28T13:09:53.050Z,1019.3
2019-04-28T13:14:53.049Z,1019.2
2019-04-28T13:19:53.094Z,1019.2
2019-04-28T13:24:53.072Z,1019.1
2019-04-28T13:29:52.989Z,1019
2019-04-28T13:34:53.232Z,1019
2019-04-28T13:39:53.205Z,1019
2019-04-28T13:44:53.169Z,1018.9
2019-04-28T13:49:52.977Z,1018.9
2019-04-28T13:54:54.354Z,1018.8
2019-04-28T13:59:53.400Z,1018.8
2019-04-28T14:04:53.167Z,1018.8
2019-04-28T14:09:53.215Z,1018.6
2019-04-28T14:14:53.158Z,1018.6
2019-04-28T14:19:53.158Z,1018.6
2019-04-28T14:24:53.597Z,1018.6
2019-04-28T14:29:53.385Z,1018.5
2019-04-28T14:34:53.716Z,1018.5
2019-04-28T14:39:53.107Z,1018.6
2019-04-28T14:44:54.110Z,1018.5
2019-04-28T14:49:53.848Z,1018.4
2019-04-28T14:54:53.252Z,1018.4
2019-04-28T14:59:53.295Z,1018.4
2019-04-28T15:04:53.199Z,1018.4
2019-04-28T15:09:53.756Z,1018.3
2019-04-28T15:14:53.191Z,1018.3
2019-04-28T15:19:53.310Z,1018.3
2019-04-28T15:24:53.167Z,1018.3
2019-04-28T15:29:53.042Z,1018.3
2019-04-28T15:34:53.042Z,1018.3
2019-04-28T15:39:53.386Z,1018.4
2019-04-28T15:44:53.195Z,1018.3
2019-04-28T15:49:53.232Z,1018.5
2019-04-28T15:54:53.217Z,1018.5
2019-04-28T15:59:53.650Z,1018.4
2019-04-28T16:04:53.211Z,1018.4
2019-04-28T16:09:53.243Z,1018.3
2019-04-28T16:14:53.167Z,1018.3
2019-04-28T16:19:53.549Z,1018.3
2019-04-28T16:24:53.118Z,1018.3
2019-04-28T16:29:53.297Z,1018.3
2019-04-28T16:34:53.227Z,1018.2
2019-04-28T16:39:53.433Z,1018.3
2019-04-28T16:44:53.257Z,1018.2
2019-04-28T16:49:53.186Z,1018.3
2019-04-28T16:54:53.321Z,1018.3
2019-04-28T16:59:53.056Z,1018.3
2019-04-28T17:04:53.032Z,1018.4
2019-04-28T17:09:53.447Z,1018.5
2019-04-28T17:14:53.054Z,1018.5
2019-04-28T17:19:53.171Z,1018.6
2019-04-28T17:24:54.929Z,1018.7
2019-04-28T17:29:53.283Z,1018.7
2019-04-28T17:34:53.211Z,1018.7
2019-04-28T17:39:53.150Z,1018.8
2019-04-28T17:44:53.287Z,1018.7
2019-04-28T17:49:56.220Z,1018.8
2019-04-28T17:54:53.524Z,1018.8
2019-04-28T17:59:53.357Z,1019
2019-04-28T18:04:53.682Z,1019
2019-04-28T18:09:53.710Z,1019.1
2019-04-28T18:14:53.499Z,1019.1
2019-04-28T18:19:54.851Z,1019.1
2019-04-28T18:24:54.463Z,1019.3
2019-04-28T18:29:54.121Z,1019.3
2019-04-28T18:34:53.664Z,1019.3
2019-04-28T18:39:53.395Z,1019.4
2019-04-28T18:44:53.662Z,1019.5
2019-04-28T18:49:53.501Z,1019.5
2019-04-28T18:54:54.373Z,1019.6
2019-04-28T18:59:53.464Z,1019.7
2019-04-28T19:04:55.074Z,1019.8
2019-04-28T19:09:55.183Z,1019.8
2019-04-28T19:14:53.604Z,1020
2019-04-28T19:19:54.840Z,1020
2019-04-28T19:24:55.857Z,1020
2019-04-28T19:29:53.368Z,1020.2
2019-04-28T19:34:53.555Z,1020.1
2019-04-28T19:39:54.671Z,1020.2
2019-04-28T19:44:53.465Z,1020.2
2019-04-28T19:49:53.382Z,1020.2
2019-04-28T19:54:53.394Z,1020.3
2019-04-28T19:59:53.561Z,1020.2
2019-04-28T20:04:54.083Z,1020.3
2019-04-28T20:09:53.358Z,1020.3
2019-04-28T20:14:53.271Z,1020.5
2019-04-28T20:19:53.211Z,1020.5
2019-04-28T20:24:53.322Z,1020.5
2019-04-28T20:29:53.696Z,1020.5
2019-04-28T20:34:53.510Z,1020.5
2019-04-28T20:39:53.359Z,1020.4
2019-04-28T20:44:53.369Z,1020.4
2019-04-28T20:49:53.335Z,1020.4
2019-04-28T20:54:53.179Z,1020.4
2019-04-28T20:59:53.165Z,1020.4
2019-04-28T21:04:53.148Z,1020.5
2019-04-28T21:09:53.322Z,1020.4
2019-04-28T21:14:53.382Z,1020.5
2019-04-28T21:19:53.383Z,1020.5
2019-04-28T21:24:53.425Z,1020.4
2019-04-28T21:29:53.350Z,1020.4
2019-04-28T21:34:53.144Z,1020.4
2019-04-28T21:39:53.305Z,1020.4
2019-04-28T21:44:53.162Z,1020.3
2019-04-28T21:49:53.305Z,1020.4
2019-04-28T21:54:53.409Z,1020.4
2019-04-28T21:59:53.355Z,1020.3
2019-04-28T22:04:53.431Z,1020.3
2019-04-28T22:09:53.409Z,1020.3
2019-04-28T22:14:54.302Z,1020.3
2019-04-28T22:19:53.383Z,1020.3
2019-04-28T22:24:53.188Z,1020.3
2019-04-28T22:29:53.220Z,1020.4
2019-04-28T22:34:53.193Z,1020.4
2019-04-28T22:39:53.232Z,1020.4
2019-04-28T22:44:53.203Z,1020.4
2019-04-28T22:49:53.215Z,1020.3
2019-04-28T22:54:53.202Z,1020.3
2019-04-28T22:59:53.341Z,1020.4
2019-04-28T23:04:53.383Z,1020.4
2019-04-28T23:09:53.324Z,1020.4
2019-04-28T23:14:53.336Z,1020.3
2019-04-28T23:19:53.366Z,1020.3
2019-04-28T23:24:53.326Z,1020.4
2019-04-28T23:29:53.464Z,1020.4
2019-04-28T23:34:53.354Z,1020.4
2019-04-28T23:39:53.216Z,1020.4
2019-04-28T23:44:53.363Z,1020.3
2019-04-28T23:49:53.349Z,1020.3
2019-04-28T23:54:53.397Z,1020.4
2019-04-28T23:59:53.248Z,1020.4
